Blue Ridge Information

FAA: MTV - ICAO: KMTV

Blue Ridge (Airport) Location

State Virginia
County Henry
City Martinsville
Blue Ridge (Airport) is 8 miles southwest of Martinsville, VA.
Latitude 36-37-50.7000N
Longitude 080-01-06.0000W
Elevation 940ft

Blue Ridge METARs

METAR KMTV 261135Z AUTO 10005KT 5SM BR OVC004 15/15 A3028 RMK AO2 T01480148
Altimeter 30.28"
Temperature 14.8°C (58.6°F)
Wind 100° at 5KT
Clouds overcast at 400ft
Visibility 5.0mi
Time observed: 2022-05-26T11:35:00Z

Blue Ridge (Airport) Details

Status Operational
Activation N/A
Ownership Public
Usage Public
Chart CINCINNATI
ATC on-site No
Beacon schedule sunset-sunrise
Beacon color clear green

Blue Ridge (Airport) Contacts

Owner BLUE RIDGE ARPT AUTH
Owner address 525 AIRPORT ROAD, MARTINSVILLE, VA 24112
Owner phone 276-957-2291
Manager CAROL WALSH
Manager address 485 TYE RIVER RD, ARRINGTON, VA 22922
Manager phone 434-263-5229

Blue Ridge Radio Frequencies

Blue Ridge (Airport) Radio Frequencies

UNICOM 122.7
Common traffic advisory frequency (CTAF) 122.7